Time;durP1;ratioP1;P1;durP2;ratioP2;P2;SDS_P1;SDS_P2;PMS_P1;PMS_P2;Temp;Humidity;BMP_temperature;BMP_pressure;BME280_temperature;BME280_humidity;BME280_pressure;Samples;Min_cycle;Max_cycle;Signal;HPM_P1;HPM_P2
2021/05/07 00:02:16;;;;;;;24.52;16.05;;;4.90;99.90;;;;;;5094531;28;20032;-66
2021/05/07 00:04:41;;;;;;;24.25;16.15;;;4.90;99.90;;;;;;5094480;28;20039;-66
2021/05/07 00:07:07;;;;;;;26.65;16.30;;;4.90;99.90;;;;;;5094624;28;20060;-66
2021/05/07 00:09:32;;;;;;;26.92;17.58;;;4.90;99.90;;;;;;5094663;28;20024;-67
2021/05/07 00:11:58;;;;;;;23.35;16.35;;;5.00;99.90;;;;;;5094336;28;20024;-66
2021/05/07 00:14:24;;;;;;;26.58;16.60;;;4.90;99.90;;;;;;5094329;28;20031;-66
2021/05/07 00:16:52;;;;;;;25.90;15.52;;;5.00;99.90;;;;;;5093354;28;20074;-67
2021/05/07 00:19:18;;;;;;;24.10;15.85;;;5.00;99.90;;;;;;5094298;28;20472;-66
2021/05/07 00:21:45;;;;;;;23.90;16.25;;;4.90;99.90;;;;;;5094236;28;20071;-67
2021/05/07 00:24:10;;;;;;;24.23;16.73;;;4.90;99.90;;;;;;5094527;28;20024;-66
2021/05/07 00:26:36;;;;;;;25.13;15.90;;;4.80;99.90;;;;;;5093789;28;20031;-66
2021/05/07 00:29:02;;;;;;;26.73;17.10;;;4.70;99.90;;;;;;5094088;28;20020;-66
2021/05/07 00:31:28;;;;;;;24.13;16.13;;;4.60;99.90;;;;;;5094089;28;20028;-67
2021/05/07 00:33:54;;;;;;;24.65;15.68;;;4.60;99.90;;;;;;5094031;28;20373;-65
2021/05/07 00:36:19;;;;;;;26.35;16.88;;;4.60;99.90;;;;;;5094040;28;20069;-66
2021/05/07 00:38:45;;;;;;;26.33;16.95;;;4.70;99.90;;;;;;5093266;28;20483;-66
2021/05/07 00:41:10;;;;;;;24.55;15.35;;;4.60;99.90;;;;;;5093917;28;20154;-67
2021/05/07 00:43:39;;;;;;;26.80;17.58;;;4.70;99.90;;;;;;5093762;28;20020;-67
2021/05/07 00:46:05;;;;;;;29.63;16.60;;;4.70;99.90;;;;;;5093780;28;20048;-66
2021/05/07 00:48:30;;;;;;;25.65;16.33;;;4.80;99.90;;;;;;5093589;28;20110;-65
2021/05/07 00:50:56;;;;;;;27.83;16.58;;;4.80;99.90;;;;;;5093824;28;20073;-66
2021/05/07 00:53:22;;;;;;;23.63;15.52;;;4.70;99.90;;;;;;5093812;28;20043;-66
2021/05/07 00:55:47;;;;;;;24.35;15.88;;;4.70;99.90;;;;;;5093805;28;20024;-66
2021/05/07 00:58:14;;;;;;;24.92;16.05;;;4.70;99.90;;;;;;5094291;28;20020;-66
2021/05/07 01:00:39;;;;;;;32.40;17.27;;;4.70;99.90;;;;;;5093766;28;20036;-66
2021/05/07 01:03:05;;;;;;;25.08;14.88;;;4.70;99.90;;;;;;5093753;28;20028;-67
2021/05/07 01:05:31;;;;;;;26.35;15.38;;;4.70;99.90;;;;;;5093693;28;20047;-65
2021/05/07 01:07:57;;;;;;;25.38;15.93;;;4.70;99.90;;;;;;5093904;28;20358;-66
2021/05/07 01:10:23;;;;;;;22.45;14.73;;;4.70;99.90;;;;;;5093649;28;20046;-66
2021/05/07 01:12:49;;;;;;;27.98;16.17;;;4.70;99.90;;;;;;5093905;28;20027;-66
2021/05/07 01:15:23;;;;;;;26.80;17.42;;;4.60;99.90;;;;;;5093269;28;20393;-66
2021/05/07 01:17:52;;;;;;;26.27;16.95;;;4.60;99.90;;;;;;5094100;28;20028;-66
2021/05/07 01:20:24;;;;;;;33.58;19.15;;;4.60;99.90;;;;;;5093569;28;20035;-66
2021/05/07 01:22:52;;;;;;;35.13;20.30;;;4.50;99.90;;;;;;5093563;28;20024;-66
2021/05/07 01:25:22;;;;;;;36.85;20.67;;;4.40;99.90;;;;;;5093797;28;20062;-65
2021/05/07 01:27:49;;;;;;;35.45;20.33;;;4.40;99.90;;;;;;5093420;28;20031;-66
2021/05/07 01:30:20;;;;;;;34.70;20.80;;;4.40;99.90;;;;;;5093734;28;20347;-66
2021/05/07 01:32:46;;;;;;;35.90;21.58;;;4.40;99.90;;;;;;5093458;28;20085;-66
2021/05/07 01:35:15;;;;;;;39.25;21.95;;;4.40;99.90;;;;;;5093719;28;20480;-66
2021/05/07 01:37:43;;;;;;;35.95;21.60;;;4.40;99.90;;;;;;5093427;28;20032;-66
2021/05/07 01:40:21;;;;;;;37.15;21.35;;;4.50;99.90;;;;;;5094177;28;20032;-66
2021/05/07 01:42:47;;;;;;;35.75;22.02;;;4.50;99.90;;;;;;5093622;28;20020;-66
2021/05/07 01:45:15;;;;;;;35.05;21.50;;;4.40;99.90;;;;;;5093640;28;20020;-66
2021/05/07 01:47:41;;;;;;;40.35;23.25;;;4.40;99.90;;;;;;5092814;28;20044;-66
2021/05/07 01:50:08;;;;;;;38.90;22.85;;;4.40;99.90;;;;;;5093547;28;20028;-65
2021/05/07 01:52:34;;;;;;;39.53;21.70;;;4.50;99.90;;;;;;5093561;28;20416;-66
2021/05/07 01:55:02;;;;;;;39.00;23.88;;;4.50;99.90;;;;;;5095818;28;20029;-66
2021/05/07 01:57:30;;;;;;;44.95;25.00;;;4.50;99.90;;;;;;5097203;28;20023;-66
2021/05/07 01:59:55;;;;;;;43.40;23.75;;;4.50;99.90;;;;;;5096610;28;20054;-66
2021/05/07 02:02:21;;;;;;;49.22;26.08;;;4.50;99.90;;;;;;5096842;28;20036;-66
2021/05/07 02:04:47;;;;;;;46.03;26.50;;;4.50;99.90;;;;;;5096765;28;20028;-66
2021/05/07 02:07:12;;;;;;;47.33;27.38;;;4.50;99.90;;;;;;5095960;28;20024;-66
2021/05/07 02:09:38;;;;;;;54.45;29.10;;;4.50;99.90;;;;;;5096695;28;20023;-65
2021/05/07 02:12:03;;;;;;;47.90;26.63;;;4.50;99.90;;;;;;5096954;28;20029;-66
2021/05/07 02:14:29;;;;;;;60.20;30.40;;;4.50;99.90;;;;;;5096615;28;20102;-66
2021/05/07 02:16:55;;;;;;;55.78;30.10;;;4.50;99.90;;;;;;5096558;28;20059;-65
2021/05/07 02:19:20;;;;;;;54.85;29.42;;;4.50;99.90;;;;;;5096542;28;20020;-65
2021/05/07 02:21:46;;;;;;;53.63;29.05;;;4.50;99.90;;;;;;5096448;28;20020;-66
2021/05/07 02:24:13;;;;;;;53.35;28.98;;;4.60;99.90;;;;;;5096403;28;20487;-66
2021/05/07 02:26:39;;;;;;;53.75;29.63;;;4.50;99.90;;;;;;5096568;28;20469;-66
2021/05/07 02:29:04;;;;;;;55.20;31.05;;;4.50;99.90;;;;;;5096598;28;20085;-66
2021/05/07 02:31:30;;;;;;;56.70;31.50;;;4.60;99.90;;;;;;5096570;28;20024;-65
2021/05/07 02:33:55;;;;;;;63.75;32.47;;;4.60;99.90;;;;;;5096484;28;20462;-66
2021/05/07 02:36:21;;;;;;;56.67;31.67;;;4.60;99.90;;;;;;5096195;28;20358;-66
2021/05/07 02:38:46;;;;;;;61.75;32.90;;;4.60;99.90;;;;;;5096393;28;20032;-66
2021/05/07 02:41:12;;;;;;;68.57;34.47;;;4.70;99.90;;;;;;5096391;28;20024;-66
2021/05/07 02:43:37;;;;;;;57.15;31.77;;;4.70;99.90;;;;;;5096007;28;20024;-65
2021/05/07 02:46:03;;;;;;;62.92;33.97;;;4.70;99.90;;;;;;5095869;28;20074;-66
2021/05/07 02:48:28;;;;;;;61.25;33.78;;;4.70;99.90;;;;;;5094753;28;20020;-66
2021/05/07 02:50:54;;;;;;;61.70;33.08;;;4.70;99.90;;;;;;5095893;28;20066;-66
2021/05/07 02:53:19;;;;;;;59.25;32.83;;;4.80;99.90;;;;;;5095850;28;20099;-66
2021/05/07 02:55:45;;;;;;;59.15;33.65;;;4.80;99.90;;;;;;5095761;28;20020;-66
2021/05/07 02:58:10;;;;;;;59.08;34.00;;;4.80;99.90;;;;;;5095737;28;20437;-66
2021/05/07 03:00:36;;;;;;;69.18;37.78;;;4.70;99.90;;;;;;5095994;28;20039;-66
2021/05/07 03:03:01;;;;;;;69.30;37.13;;;4.60;99.90;;;;;;5095661;28;20032;-66
2021/05/07 03:05:27;;;;;;;63.63;36.40;;;4.60;99.90;;;;;;5095881;28;20024;-66
2021/05/07 03:07:53;;;;;;;69.10;38.28;;;4.60;99.90;;;;;;5095476;28;20024;-66
2021/05/07 03:10:18;;;;;;;68.00;37.25;;;4.60;99.90;;;;;;5095489;28;20020;-66
2021/05/07 03:12:44;;;;;;;66.57;37.63;;;4.60;99.90;;;;;;5095742;28;20018;-66
2021/05/07 03:15:10;;;;;;;74.70;39.45;;;4.60;99.90;;;;;;5095691;28;20027;-66
2021/05/07 03:17:36;;;;;;;78.47;40.75;;;4.50;99.90;;;;;;5095704;28;20016;-65
2021/05/07 03:20:03;;;;;;;74.32;39.72;;;4.60;99.90;;;;;;5095669;28;20027;-66
2021/05/07 03:22:29;;;;;;;72.68;39.85;;;4.50;99.90;;;;;;5094399;28;20160;-65
2021/05/07 03:24:54;;;;;;;72.53;41.75;;;4.60;99.90;;;;;;5094963;28;20045;-66
2021/05/07 03:27:20;;;;;;;81.00;41.47;;;4.60;99.90;;;;;;5095093;28;20032;-65
2021/05/07 03:29:45;;;;;;;79.82;41.50;;;4.60;99.90;;;;;;5095112;28;20099;-66
2021/05/07 03:32:11;;;;;;;78.22;42.10;;;4.60;99.90;;;;;;5095365;28;20020;-65
2021/05/07 03:34:37;;;;;;;77.00;41.85;;;4.60;99.90;;;;;;5095319;28;20016;-66
2021/05/07 03:37:02;;;;;;;77.88;42.85;;;4.50;99.90;;;;;;5094977;28;20059;-65
2021/05/07 03:39:28;;;;;;;77.00;41.80;;;4.50;99.90;;;;;;5094935;28;20035;-65
2021/05/07 03:41:53;;;;;;;82.63;44.53;;;4.50;99.90;;;;;;5094914;28;20085;-66
2021/05/07 03:44:19;;;;;;;84.40;43.20;;;4.50;99.90;;;;;;5094844;28;20020;-65
2021/05/07 03:46:44;;;;;;;83.30;45.47;;;4.40;99.90;;;;;;5094395;28;20048;-66
2021/05/07 03:49:10;;;;;;;90.22;48.42;;;4.40;99.90;;;;;;5095054;28;20454;-66
2021/05/07 03:51:35;;;;;;;94.20;46.10;;;4.40;99.90;;;;;;5094710;28;20020;-66
2021/05/07 03:54:01;;;;;;;87.30;45.75;;;4.30;99.90;;;;;;5094965;28;20370;-65
2021/05/07 03:56:26;;;;;;;89.40;46.45;;;4.30;99.90;;;;;;5094891;28;20028;-65
2021/05/07 03:58:52;;;;;;;86.75;45.20;;;4.30;99.90;;;;;;5094600;28;20028;-65
2021/05/07 04:01:17;;;;;;;90.13;46.60;;;4.30;99.90;;;;;;5094566;28;20020;-66
2021/05/07 04:03:43;;;;;;;88.07;46.67;;;4.30;99.90;;;;;;5094537;28;20024;-65
2021/05/07 04:06:10;;;;;;;103.07;50.40;;;4.30;99.90;;;;;;5093456;28;20024;-65
2021/05/07 04:08:41;;;;;;;99.15;48.33;;;4.20;99.90;;;;;;5094485;28;20392;-65
2021/05/07 04:11:17;;;;;;;90.40;49.00;;;4.20;99.90;;;;;;5094413;28;20056;-65
2021/05/07 04:13:43;;;;;;;92.43;49.08;;;4.30;99.90;;;;;;5094678;28;20073;-65
2021/05/07 04:16:09;;;;;;;93.35;46.28;;;4.30;99.90;;;;;;5094399;28;20016;-65
2021/05/07 04:18:35;;;;;;;100.85;50.90;;;4.30;99.90;;;;;;5094169;28;20401;-66
2021/05/07 04:21:02;;;;;;;96.30;48.80;;;4.30;99.90;;;;;;5094247;28;20028;-66
2021/05/07 04:23:28;;;;;;;98.70;48.47;;;4.30;99.90;;;;;;5094472;28;20016;-66
2021/05/07 04:25:54;;;;;;;94.45;49.10;;;4.40;99.90;;;;;;5094470;28;20027;-66
2021/05/07 04:28:20;;;;;;;95.88;48.13;;;4.40;99.90;;;;;;5094112;28;20024;-65
2021/05/07 04:30:47;;;;;;;89.55;45.10;;;4.30;99.90;;;;;;5094107;28;20043;-65
2021/05/07 04:33:13;;;;;;;96.05;49.05;;;4.30;99.90;;;;;;5093168;28;20044;-65
2021/05/07 04:35:38;;;;;;;95.70;49.50;;;4.30;99.90;;;;;;5094344;28;20044;-65
2021/05/07 04:38:04;;;;;;;97.10;48.88;;;4.30;99.90;;;;;;5094009;28;20473;-65
2021/05/07 04:40:32;;;;;;;92.35;48.28;;;4.20;99.90;;;;;;5094024;28;20028;-66
2021/05/07 04:43:01;;;;;;;92.15;47.33;;;4.30;99.90;;;;;;5093909;28;20431;-65
2021/05/07 04:45:34;;;;;;;87.65;45.25;;;4.40;99.90;;;;;;5093727;28;20026;-65
2021/05/07 04:48:00;;;;;;;84.88;44.45;;;4.50;99.90;;;;;;5093824;28;20032;-65
2021/05/07 04:50:25;;;;;;;82.88;45.75;;;4.60;99.90;;;;;;5094108;28;20038;-66
2021/05/07 04:52:51;;;;;;;72.75;40.50;;;4.80;99.90;;;;;;5093843;28;20469;-65
2021/05/07 04:55:18;;;;;;;70.25;38.83;;;5.00;99.90;;;;;;5093805;28;20028;-66
2021/05/07 04:57:43;;;;;;;62.92;35.95;;;5.20;99.90;;;;;;5093809;28;20077;-66
2021/05/07 05:00:10;;;;;;;62.75;35.10;;;5.40;99.90;;;;;;5093746;28;20103;-65
2021/05/07 05:02:35;;;;;;;62.33;35.38;;;5.50;99.90;;;;;;5093773;28;20070;-66
2021/05/07 05:05:03;;;;;;;58.78;33.40;;;5.60;99.90;;;;;;5093723;28;20403;-66
2021/05/07 05:07:29;;;;;;;58.38;34.30;;;5.50;99.90;;;;;;5093946;28;20028;-65
2021/05/07 05:09:55;;;;;;;63.53;35.20;;;5.40;99.90;;;;;;5093732;28;20047;-66
2021/05/07 05:12:20;;;;;;;64.93;37.05;;;5.50;99.90;;;;;;5092933;28;20039;-66
2021/05/07 05:14:46;;;;;;;64.10;38.08;;;5.70;99.90;;;;;;5093626;28;20035;-65
2021/05/07 05:17:11;;;;;;;60.10;34.72;;;5.90;99.90;;;;;;5093601;28;20359;-66
2021/05/07 05:19:37;;;;;;;56.78;34.05;;;6.20;99.90;;;;;;5093841;28;20032;-66
2021/05/07 05:22:02;;;;;;;52.35;33.30;;;6.40;99.90;;;;;;5093558;28;20043;-66
2021/05/07 05:24:28;;;;;;;47.00;30.85;;;6.80;99.90;;;;;;5092360;28;20038;-66
2021/05/07 05:26:54;;;;;;;46.10;29.20;;;7.30;99.90;;;;;;5093468;28;20107;-66
2021/05/07 05:29:19;;;;;;;45.33;29.30;;;7.30;99.90;;;;;;5095120;28;20024;-66
2021/05/07 05:31:45;;;;;;;43.03;28.00;;;7.20;99.90;;;;;;5097475;28;20035;-67
2021/05/07 05:34:11;;;;;;;36.83;26.25;;;7.50;99.90;;;;;;5097374;28;20108;-66
2021/05/07 05:36:36;;;;;;;33.03;22.27;;;8.10;99.90;;;;;;5097637;28;20174;-65
2021/05/07 05:39:03;;;;;;;32.55;22.67;;;8.40;99.90;;;;;;5096964;28;20389;-66
2021/05/07 05:41:28;;;;;;;31.33;21.50;;;8.20;99.90;;;;;;5097565;28;20024;-65
2021/05/07 05:43:54;;;;;;;35.47;23.77;;;8.10;99.90;;;;;;5097204;28;20035;-66
2021/05/07 05:46:19;;;;;;;31.42;22.85;;;8.00;99.90;;;;;;5096963;28;20058;-67
2021/05/07 05:48:45;;;;;;;33.53;23.55;;;7.80;99.90;;;;;;5097079;28;20393;-66
2021/05/07 05:51:10;;;;;;;32.55;23.20;;;7.70;99.90;;;;;;5097064;28;20024;-66
2021/05/07 05:53:36;;;;;;;33.42;23.45;;;7.70;99.90;;;;;;5097286;28;20453;-67
2021/05/07 05:56:01;;;;;;;32.25;22.13;;;7.70;99.90;;;;;;5097256;28;20453;-66
2021/05/07 05:58:30;;;;;;;31.05;22.63;;;7.90;99.90;;;;;;5096814;28;20032;-67
2021/05/07 06:00:57;;;;;;;34.35;24.17;;;7.70;99.90;;;;;;5096656;28;20034;-66
2021/05/07 06:03:22;;;;;;;33.53;20.38;;;7.60;99.90;;;;;;5096626;28;20116;-67
2021/05/07 06:05:48;;;;;;;32.67;21.38;;;7.30;99.90;;;;;;5097052;28;20099;-66
2021/05/07 06:08:13;;;;;;;33.50;22.90;;;6.90;99.90;;;;;;5096658;28;20063;-66
2021/05/07 06:10:39;;;;;;;37.00;23.95;;;6.70;99.90;;;;;;5096939;28;20526;-66
2021/05/07 06:13:05;;;;;;;38.25;25.50;;;6.70;99.90;;;;;;5096327;28;20028;-66
2021/05/07 06:15:30;;;;;;;39.22;24.52;;;6.60;99.90;;;;;;5094311;28;20020;-66
2021/05/07 06:17:56;;;;;;;37.85;23.52;;;6.70;99.90;;;;;;5095553;28;20043;-66
2021/05/07 06:20:21;;;;;;;36.58;22.83;;;6.70;99.90;;;;;;5095797;28;20036;-67
2021/05/07 06:22:48;;;;;;;32.65;22.63;;;6.70;99.90;;;;;;5096077;28;20024;-66
2021/05/07 06:25:19;;;;;;;36.72;22.35;;;6.60;99.90;;;;;;5095873;28;20099;-66
2021/05/07 06:27:45;;;;;;;35.17;22.73;;;6.50;99.90;;;;;;5096736;28;20039;-66
2021/05/07 06:30:13;;;;;;;39.33;24.00;;;6.50;99.90;;;;;;5095665;28;20028;-66
2021/05/07 06:32:39;;;;;;;34.72;22.80;;;6.40;99.90;;;;;;5096028;28;20028;-67
2021/05/07 06:35:06;;;;;;;37.55;22.73;;;6.50;99.90;;;;;;5094221;28;20035;-66
2021/05/07 06:37:33;;;;;;;36.63;22.83;;;6.60;99.90;;;;;;5086042;28;20024;-67
2021/05/07 06:39:59;;;;;;;31.90;20.00;;;6.50;99.90;;;;;;5083715;28;20557;-66
2021/05/07 06:42:24;;;;;;;35.63;21.80;;;6.60;99.90;;;;;;5087506;28;20130;-66
2021/05/07 06:44:50;;;;;;;39.80;22.58;;;6.60;99.90;;;;;;5086248;28;20027;-66
2021/05/07 06:47:16;;;;;;;38.28;22.58;;;6.60;99.90;;;;;;5088426;28;20055;-66
2021/05/07 06:49:42;;;;;;;35.95;21.55;;;6.60;99.90;;;;;;5089990;28;20036;-66
2021/05/07 06:52:08;;;;;;;32.30;19.95;;;6.50;99.90;;;;;;5091900;28;20073;-66
2021/05/07 06:54:33;;;;;;;35.35;21.33;;;6.50;99.90;;;;;;5095170;28;20024;-66
2021/05/07 06:57:00;;;;;;;33.40;20.45;;;6.40;99.90;;;;;;5086290;28;20102;-65
2021/05/07 06:59:27;;;;;;;27.40;16.98;;;6.30;99.90;;;;;;5095395;28;20482;-67
2021/05/07 07:01:54;;;;;;;24.35;14.32;;;6.10;99.90;;;;;;5093932;28;20481;-66
2021/05/07 07:04:20;;;;;;;18.80;11.25;;;6.00;99.90;;;;;;5093139;28;20376;-66
2021/05/07 07:06:46;;;;;;;17.02;10.98;;;5.80;99.90;;;;;;5094436;28;20162;-66
2021/05/07 07:09:12;;;;;;;15.38;9.85;;;5.60;99.90;;;;;;5078884;28;20028;-65
2021/05/07 07:11:38;;;;;;;15.35;9.38;;;5.40;99.90;;;;;;5076042;28;20056;-65
2021/05/07 07:14:04;;;;;;;17.75;11.20;;;5.40;99.90;;;;;;5082519;28;20027;-66
2021/05/07 07:16:30;;;;;;;22.73;12.75;;;5.40;99.90;;;;;;5093330;28;20539;-67
2021/05/07 07:18:55;;;;;;;23.48;13.73;;;5.40;99.90;;;;;;5093163;28;20028;-66
2021/05/07 07:21:21;;;;;;;18.20;11.95;;;5.40;99.90;;;;;;5084732;28;20078;-67
2021/05/07 07:23:47;;;;;;;16.35;11.13;;;5.20;99.90;;;;;;5091582;28;20032;-66
2021/05/07 07:26:12;;;;;;;22.98;11.93;;;5.20;99.90;;;;;;5092677;28;20020;-66
2021/05/07 07:28:38;;;;;;;18.80;10.85;;;5.10;99.90;;;;;;5091294;28;20028;-67
2021/05/07 07:31:05;;;;;;;14.13;8.88;;;5.10;99.90;;;;;;5093380;28;20459;-66
2021/05/07 07:33:31;;;;;;;15.13;9.00;;;5.00;99.90;;;;;;5093458;28;20448;-66
2021/05/07 07:35:57;;;;;;;11.30;8.10;;;5.00;99.90;;;;;;5092991;28;20024;-66
2021/05/07 07:38:24;;;;;;;15.07;8.27;;;5.00;99.90;;;;;;5088617;28;20366;-66
2021/05/07 07:40:50;;;;;;;13.60;8.57;;;5.00;99.90;;;;;;5093350;28;20035;-66
2021/05/07 07:43:17;;;;;;;15.75;8.82;;;5.10;99.90;;;;;;5089091;28;20044;-66
2021/05/07 07:45:42;;;;;;;13.23;8.25;;;5.10;99.90;;;;;;5093661;28;20031;-66
2021/05/07 07:48:08;;;;;;;15.25;7.68;;;5.20;99.90;;;;;;5092248;28;20036;-66
2021/05/07 07:50:34;;;;;;;11.20;6.63;;;5.40;99.90;;;;;;5090759;28;20024;-66
2021/05/07 07:52:59;;;;;;;12.18;6.97;;;5.40;99.90;;;;;;5091953;28;20073;-66
2021/05/07 07:55:25;;;;;;;10.93;7.25;;;5.50;99.90;;;;;;5089369;28;20036;-65
2021/05/07 07:57:50;;;;;;;12.57;7.32;;;5.70;99.90;;;;;;5085897;28;20093;-66
2021/05/07 08:00:16;;;;;;;14.02;9.10;;;5.70;99.90;;;;;;5080756;28;20039;-66
2021/05/07 08:02:44;;;;;;;15.13;7.65;;;6.00;99.90;;;;;;5092217;28;20698;-66
2021/05/07 08:05:10;;;;;;;10.80;6.65;;;6.10;99.90;;;;;;5093484;28;20036;-66
2021/05/07 08:07:36;;;;;;;10.55;6.15;;;6.10;99.90;;;;;;5080386;28;20060;-66
2021/05/07 08:10:02;;;;;;;10.90;6.47;;;6.30;99.90;;;;;;5074418;28;20063;-65
2021/05/07 08:12:30;;;;;;;11.63;6.13;;;6.40;99.90;;;;;;5079176;28;20028;-66
2021/05/07 08:14:55;;;;;;;9.75;6.18;;;6.40;99.90;;;;;;5094027;28;20081;-66
2021/05/07 08:17:21;;;;;;;7.03;4.75;;;6.70;99.90;;;;;;5093187;28;20024;-66
2021/05/07 08:19:46;;;;;;;7.95;5.28;;;6.90;99.90;;;;;;5093634;28;20092;-66
2021/05/07 08:22:12;;;;;;;8.20;5.07;;;6.90;99.90;;;;;;5073532;28;20032;-66
2021/05/07 08:24:38;;;;;;;7.78;4.95;;;6.90;99.90;;;;;;5089611;28;20036;-66
2021/05/07 08:27:03;;;;;;;6.00;4.78;;;8.00;99.90;;;;;;5091710;28;20473;-66
2021/05/07 08:29:29;;;;;;;7.88;4.05;;;9.10;99.90;;;;;;5093216;28;20017;-66
2021/05/07 08:31:54;;;;;;;5.47;3.70;;;10.10;99.90;;;;;;5090949;28;20016;-66
2021/05/07 08:34:21;;;;;;;4.00;3.60;;;10.60;99.90;;;;;;5093473;28;20065;-67
2021/05/07 08:36:47;;;;;;;6.30;4.20;;;10.80;99.90;;;;;;5092234;28;20034;-67
2021/05/07 08:39:13;;;;;;;5.78;3.83;;;10.90;99.90;;;;;;5093024;28;20123;-67
2021/05/07 08:41:42;;;;;;;4.97;3.65;;;11.80;99.90;;;;;;5090830;28;20060;-67
2021/05/07 08:44:08;;;;;;;4.72;3.67;;;12.10;99.90;;;;;;5093211;28;20032;-67
2021/05/07 08:46:35;;;;;;;4.57;4.10;;;12.00;99.90;;;;;;5092069;28;20047;-67
2021/05/07 08:49:00;;;;;;;4.78;4.25;;;12.30;99.90;;;;;;5093016;28;20427;-68
2021/05/07 08:51:26;;;;;;;5.35;4.18;;;12.10;99.90;;;;;;5092206;28;20031;-67
2021/05/07 08:53:51;;;;;;;6.63;4.22;;;11.60;99.90;;;;;;5092726;28;20028;-67
2021/05/07 08:56:17;;;;;;;5.22;4.65;;;11.20;99.90;;;;;;5088248;28;20020;-67
2021/05/07 08:58:46;;;;;;;5.72;4.70;;;11.10;99.90;;;;;;5092530;28;20028;-66
2021/05/07 09:01:12;;;;;;;6.65;5.00;;;11.00;99.90;;;;;;5087364;28;20021;-66
2021/05/07 09:03:41;;;;;;;6.20;4.70;;;11.20;99.90;;;;;;5094763;28;20658;-66
2021/05/07 09:06:22;;;;;;;5.03;4.53;;;11.60;99.90;;;;;;5096880;28;20024;-67
2021/05/07 09:08:49;;;;;;;7.43;4.63;;;11.70;99.90;;;;;;5097105;28;20029;-67
2021/05/07 09:11:16;;;;;;;6.35;5.00;;;11.20;99.90;;;;;;5097179;28;20059;-67
2021/05/07 09:13:42;;;;;;;8.82;5.50;;;11.10;99.90;;;;;;5096840;28;20074;-68
2021/05/07 09:16:10;;;;;;;8.40;5.70;;;10.70;99.90;;;;;;5097335;28;20488;-66
2021/05/07 09:18:45;;;;;;;6.95;4.47;;;11.00;99.90;;;;;;5083737;28;20033;-67
2021/05/07 09:21:12;;;;;;;5.82;4.95;;;12.50;99.90;;;;;;5094662;28;20023;-67
2021/05/07 09:23:40;;;;;;;6.25;4.80;;;12.10;99.90;;;;;;5090180;28;20024;-67
2021/05/07 09:26:06;;;;;;;5.40;4.90;;;12.10;99.90;;;;;;5090715;28;20404;-67
2021/05/07 09:28:32;;;;;;;5.30;4.53;;;12.80;99.90;;;;;;5090302;28;20027;-67
2021/05/07 09:31:15;;;;;;;8.48;4.15;;;13.20;99.90;;;;;;5096497;28;20028;-67
2021/05/07 09:33:42;;;;;;;5.43;4.10;;;13.90;99.90;;;;;;5096725;28;20028;-67
2021/05/07 09:36:09;;;;;;;4.25;3.78;;;13.70;99.90;;;;;;5096826;28;20026;-68
2021/05/07 09:38:35;;;;;;;6.07;4.32;;;12.70;99.90;;;;;;5097044;28;20064;-67
2021/05/07 09:41:01;;;;;;;6.57;4.43;;;11.80;99.90;;;;;;5095439;28;20043;-67
2021/05/07 09:43:30;;;;;;;5.30;4.20;;;11.40;99.90;;;;;;5092700;28;20028;-67
2021/05/07 09:45:56;;;;;;;7.60;4.53;;;11.20;99.90;;;;;;5093316;28;20097;-67
2021/05/07 09:48:23;;;;;;;6.63;4.88;;;11.20;99.90;;;;;;5096581;28;20426;-68
2021/05/07 09:50:54;;;;;;;5.88;4.57;;;11.10;99.90;;;;;;5095392;28;20024;-67
2021/05/07 09:53:22;;;;;;;6.22;4.53;;;10.70;99.90;;;;;;5096495;28;20020;-68
2021/05/07 09:55:52;;;;;;;5.30;4.80;;;10.10;99.90;;;;;;5094583;28;20028;-67
2021/05/07 09:58:18;;;;;;;7.35;5.00;;;9.70;99.90;;;;;;5096244;28;20442;-68
2021/05/07 10:00:44;;;;;;;8.43;4.97;;;9.50;99.90;;;;;;5077833;28;20107;-67
2021/05/07 10:03:09;;;;;;;9.00;4.20;;;10.00;99.90;;;;;;5076737;28;20032;-67
2021/05/07 10:05:36;;;;;;;4.82;4.00;;;12.10;99.90;;;;;;5095315;28;20028;-67
2021/05/07 10:08:02;;;;;;;8.52;4.38;;;12.20;99.90;;;;;;5091244;28;20031;-65
2021/05/07 10:10:30;;;;;;;8.63;4.55;;;11.30;99.90;;;;;;5094852;28;20024;-65
2021/05/07 10:13:00;;;;;;;9.52;5.20;;;10.70;99.90;;;;;;5096285;28;20039;-68
2021/05/07 10:15:37;;;;;;;5.82;5.00;;;10.50;99.90;;;;;;5093209;28;20533;-66
2021/05/07 10:18:05;;;;;;;6.95;4.55;;;10.20;99.90;;;;;;5096180;28;20032;-65
2021/05/07 10:20:33;;;;;;;5.75;4.78;;;10.00;99.90;;;;;;5095038;28;20174;-66
2021/05/07 10:23:00;;;;;;;5.30;4.80;;;10.10;99.90;;;;;;5092843;28;20031;-66
2021/05/07 10:25:27;;;;;;;8.00;5.25;;;10.10;99.90;;;;;;5082851;28;20028;-66
2021/05/07 10:27:56;;;;;;;8.52;5.85;;;10.10;99.90;;;;;;5095525;28;20389;-65
2021/05/07 10:30:24;;;;;;;7.50;4.78;;;10.10;99.90;;;;;;5094455;28;20103;-66
2021/05/07 10:33:18;;;;;;;7.68;5.15;;;11.00;99.90;;;;;;5094354;28;20089;-65
2021/05/07 10:35:52;;;;;;;5.38;4.63;;;11.40;99.90;;;;;;5094368;28;20031;-66
2021/05/07 10:38:19;;;;;;;6.68;4.50;;;11.10;99.90;;;;;;5096091;28;20028;-66
2021/05/07 10:40:50;;;;;;;7.57;4.68;;;10.80;99.90;;;;;;5094467;28;20107;-65
2021/05/07 10:43:17;;;;;;;7.93;4.93;;;11.10;99.90;;;;;;5095675;28;20024;-65
2021/05/07 10:46:00;;;;;;;4.57;4.13;;;10.90;99.90;;;;;;5094652;28;20028;-65
2021/05/07 10:48:26;;;;;;;5.95;4.47;;;11.20;99.90;;;;;;5097165;28;20028;-65
2021/05/07 10:50:57;;;;;;;5.38;4.30;;;11.00;99.90;;;;;;5061356;28;20024;-67
2021/05/07 10:53:25;;;;;;;5.03;4.50;;;11.20;99.90;;;;;;5060176;28;20024;-67
2021/05/07 10:55:52;;;;;;;6.90;4.63;;;11.10;99.90;;;;;;5083975;28;20043;-67
2021/05/07 10:58:28;;;;;;;6.97;4.68;;;11.10;99.90;;;;;;5095559;28;20032;-68
2021/05/07 11:00:54;;;;;;;6.78;4.82;;;11.10;99.90;;;;;;5073385;28;20074;-67
2021/05/07 11:03:19;;;;;;;5.05;4.55;;;11.30;99.90;;;;;;5084631;28;20032;-65
2021/05/07 11:05:48;;;;;;;6.18;4.43;;;11.20;99.90;;;;;;5095567;28;20362;-67
2021/05/07 11:08:14;;;;;;;5.43;4.28;;;10.90;99.90;;;;;;5092666;28;20103;-66
2021/05/07 11:10:40;;;;;;;7.10;4.05;;;10.70;99.90;;;;;;5079111;28;20033;-66
2021/05/07 11:13:09;;;;;;;5.13;4.50;;;10.50;99.90;;;;;;5080810;28;20032;-67
2021/05/07 11:15:35;;;;;;;7.00;4.80;;;10.50;99.90;;;;;;5084809;28;20505;-67
2021/05/07 11:18:04;;;;;;;6.57;4.70;;;10.70;99.90;;;;;;5085491;28;20363;-69
2021/05/07 11:20:32;;;;;;;5.80;4.40;;;10.60;99.90;;;;;;5093228;28;20024;-69
2021/05/07 11:22:59;;;;;;;6.53;4.70;;;10.50;99.90;;;;;;5087616;28;20039;-69
2021/05/07 11:25:25;;;;;;;9.48;4.78;;;10.60;99.90;;;;;;5074909;28;20028;-69
2021/05/07 11:27:53;;;;;;;12.73;4.65;;;10.60;99.90;;;;;;5073382;28;20020;-69
2021/05/07 11:30:19;;;;;;;7.43;5.00;;;10.80;99.90;;;;;;5075397;28;20020;-69
2021/05/07 11:32:45;;;;;;;5.45;4.22;;;10.90;99.90;;;;;;5080811;28;20078;-69
2021/05/07 11:35:12;;;;;;;7.88;3.95;;;11.60;99.90;;;;;;5072225;28;20028;-68
2021/05/07 11:37:41;;;;;;;5.70;3.50;;;12.10;99.90;;;;;;5091662;28;20111;-68
2021/05/07 11:40:12;;;;;;;7.13;3.72;;;12.20;99.90;;;;;;5097954;28;20024;-68
2021/05/07 11:42:40;;;;;;;4.18;3.78;;;11.90;99.90;;;;;;5095262;28;20024;-68
2021/05/07 11:45:09;;;;;;;6.13;4.20;;;11.70;99.90;;;;;;5077447;28;20039;-68
2021/05/07 11:47:37;;;;;;;4.50;3.58;;;11.80;99.90;;;;;;5106681;28;20043;-67
2021/05/07 11:50:05;;;;;;;4.47;3.08;;;11.50;99.90;;;;;;5081845;28;20016;-68
2021/05/07 11:52:33;;;;;;;4.88;2.95;;;11.80;99.90;;;;;;5074021;28;20016;-67
2021/05/07 11:54:59;;;;;;;3.40;2.60;;;11.60;99.90;;;;;;5086922;28;20427;-67
2021/05/07 11:57:27;;;;;;;3.55;2.50;;;11.50;99.90;;;;;;5092288;28;20035;-67
2021/05/07 11:59:52;;;;;;;3.53;2.15;;;11.60;99.90;;;;;;5075225;28;20089;-68
2021/05/07 12:02:20;;;;;;;3.25;2.50;;;11.60;99.90;;;;;;5076125;28;20465;-67
2021/05/07 12:04:46;;;;;;;2.83;2.40;;;11.80;99.90;;;;;;5091381;28;20028;-68
2021/05/07 12:07:30;;;;;;;4.80;2.13;;;12.50;99.90;;;;;;5093969;28;20027;-68
2021/05/07 12:09:58;;;;;;;3.22;1.75;;;12.60;99.90;;;;;;5098111;27;20035;-67
2021/05/07 12:12:26;;;;;;;3.50;2.03;;;12.40;99.90;;;;;;5107135;28;20016;-67
2021/05/07 12:15:12;;;;;;;3.20;2.13;;;12.60;99.90;;;;;;5094588;28;20016;-68
2021/05/07 12:17:41;;;;;;;3.50;2.00;;;12.80;99.90;;;;;;5100983;28;20027;-68
2021/05/07 12:20:08;;;;;;;4.25;1.90;;;12.80;99.90;;;;;;5097582;28;20027;-67
2021/05/07 12:22:34;;;;;;;3.08;1.88;;;13.00;99.90;;;;;;5083975;28;20024;-67
2021/05/07 12:25:09;;;;;;;2.38;2.17;;;12.80;99.90;;;;;;5098445;28;20390;-68
2021/05/07 12:27:34;;;;;;;3.72;2.22;;;12.70;99.90;;;;;;5080825;28;20016;-67
2021/05/07 12:30:00;;;;;;;5.75;2.30;;;12.40;99.90;;;;;;5094320;28;20024;-68
2021/05/07 12:32:25;;;;;;;3.25;2.67;;;13.00;99.90;;;;;;5093813;28;20089;-68
2021/05/07 12:34:58;;;;;;;3.20;2.45;;;13.20;99.90;;;;;;5093371;28;20077;-69
2021/05/07 12:37:24;;;;;;;6.20;3.30;;;12.90;99.90;;;;;;5079027;28;20082;-66
2021/05/07 12:39:52;;;;;;;6.47;3.08;;;12.40;99.90;;;;;;5073679;28;20033;-66